Terminal Aerodrome Forecast
Issued by NWS

Home | Current Version | Previous Version | Text Only | Print | Product List | Glossary On
Versions: 1 2 3 4 5 6 7 8 9 10 11 12
000
FTUS45 KMSO 271720
TAFSMN
TAF
KSMN 271720Z 2718/2818 32009KT P6SM VCSH BKN060 OVC090
     FM272000 32006KT P6SM -SHRA VCTS BKN060CB
     FM272200 33008KT P6SM -SHRA BKN060
     FM280100 VRB03KT P6SM BKN100
      AMD LTD TO CLD VIS AND WIND=

USA.gov is the U.S. government's official web portal to all federal, state and local government web resources and services.